sensor_id;sensor_type;location;lat;lon;timestamp;P1;durP1;ratioP1;P2;durP2;ratioP2
39308;SDS011;26019;47.510;19.122;2024-02-04T00:02:47;1.10;;;0.95;;
39308;SDS011;26019;47.510;19.122;2024-02-04T00:12:52;1.42;;;1.20;;
39308;SDS011;26019;47.510;19.122;2024-02-04T00:23:17;1.30;;;1.05;;
39308;SDS011;26019;47.510;19.122;2024-02-04T00:33:22;3.03;;;1.00;;
39308;SDS011;26019;47.510;19.122;2024-02-04T00:43:24;1.08;;;0.98;;
39308;SDS011;26019;47.510;19.122;2024-02-04T00:53:28;1.00;;;1.00;;
39308;SDS011;26019;47.510;19.122;2024-02-04T01:03:36;1.40;;;1.10;;
39308;SDS011;26019;47.510;19.122;2024-02-04T01:13:39;1.15;;;1.00;;
39308;SDS011;26019;47.510;19.122;2024-02-04T01:23:56;1.30;;;1.20;;
39308;SDS011;26019;47.510;19.122;2024-02-04T01:34:17;1.45;;;1.13;;
39308;SDS011;26019;47.510;19.122;2024-02-04T01:44:22;1.10;;;1.00;;
39308;SDS011;26019;47.510;19.122;2024-02-04T01:54:31;1.35;;;0.95;;
39308;SDS011;26019;47.510;19.122;2024-02-04T02:04:34;3.03;;;1.25;;
39308;SDS011;26019;47.510;19.122;2024-02-04T02:14:41;1.25;;;1.15;;
39308;SDS011;26019;47.510;19.122;2024-02-04T02:24:47;1.15;;;1.05;;
39308;SDS011;26019;47.510;19.122;2024-02-04T02:34:54;1.55;;;1.13;;
39308;SDS011;26019;47.510;19.122;2024-02-04T02:44:56;1.40;;;1.25;;
39308;SDS011;26019;47.510;19.122;2024-02-04T02:54:59;2.33;;;1.50;;
39308;SDS011;26019;47.510;19.122;2024-02-04T03:05:01;1.58;;;1.35;;
39308;SDS011;26019;47.510;19.122;2024-02-04T03:25:33;1.80;;;1.58;;
39308;SDS011;26019;47.510;19.122;2024-02-04T03:35:45;2.38;;;1.60;;
39308;SDS011;26019;47.510;19.122;2024-02-04T03:45:47;1.73;;;1.60;;
39308;SDS011;26019;47.510;19.122;2024-02-04T03:55:49;2.33;;;1.87;;
39308;SDS011;26019;47.510;19.122;2024-02-04T04:05:55;2.40;;;1.73;;
39308;SDS011;26019;47.510;19.122;2024-02-04T04:16:01;1.70;;;1.60;;
39308;SDS011;26019;47.510;19.122;2024-02-04T04:26:04;2.35;;;2.13;;
39308;SDS011;26019;47.510;19.122;2024-02-04T04:36:09;2.00;;;1.85;;
39308;SDS011;26019;47.510;19.122;2024-02-04T04:46:11;1.80;;;1.67;;
39308;SDS011;26019;47.510;19.122;2024-02-04T04:56:18;1.83;;;1.70;;
39308;SDS011;26019;47.510;19.122;2024-02-04T05:06:22;2.90;;;2.60;;
39308;SDS011;26019;47.510;19.122;2024-02-04T05:26:27;2.53;;;1.90;;
39308;SDS011;26019;47.510;19.122;2024-02-04T05:36:29;2.50;;;2.08;;
39308;SDS011;26019;47.510;19.122;2024-02-04T05:46:30;2.78;;;2.00;;
39308;SDS011;26019;47.510;19.122;2024-02-04T05:56:33;1.90;;;1.80;;
39308;SDS011;26019;47.510;19.122;2024-02-04T06:06:40;2.58;;;1.60;;
39308;SDS011;26019;47.510;19.122;2024-02-04T06:16:44;2.53;;;1.98;;
39308;SDS011;26019;47.510;19.122;2024-02-04T06:26:46;1.95;;;1.52;;
39308;SDS011;26019;47.510;19.122;2024-02-04T06:36:48;2.00;;;1.85;;
39308;SDS011;26019;47.510;19.122;2024-02-04T06:46:50;2.80;;;1.60;;
39308;SDS011;26019;47.510;19.122;2024-02-04T06:56:52;1.40;;;1.30;;
39308;SDS011;26019;47.510;19.122;2024-02-04T07:07:02;1.85;;;1.30;;
39308;SDS011;26019;47.510;19.122;2024-02-04T07:17:07;2.00;;;1.55;;
39308;SDS011;26019;47.510;19.122;2024-02-04T07:38:04;1.30;;;1.17;;
39308;SDS011;26019;47.510;19.122;2024-02-04T07:58:25;2.35;;;1.10;;
39308;SDS011;26019;47.510;19.122;2024-02-04T08:08:34;1.02;;;1.00;;
39308;SDS011;26019;47.510;19.122;2024-02-04T08:28:50;1.02;;;0.90;;
39308;SDS011;26019;47.510;19.122;2024-02-04T08:38:58;1.17;;;1.07;;
39308;SDS011;26019;47.510;19.122;2024-02-04T08:59:11;1.58;;;1.27;;
39308;SDS011;26019;47.510;19.122;2024-02-04T09:09:13;1.40;;;1.00;;
39308;SDS011;26019;47.510;19.122;2024-02-04T09:19:15;1.75;;;1.00;;
39308;SDS011;26019;47.510;19.122;2024-02-04T09:29:17;1.17;;;1.07;;
39308;SDS011;26019;47.510;19.122;2024-02-04T09:39:22;1.37;;;0.70;;
39308;SDS011;26019;47.510;19.122;2024-02-04T09:49:25;1.05;;;0.95;;
39308;SDS011;26019;47.510;19.122;2024-02-04T09:59:33;2.35;;;1.02;;
39308;SDS011;26019;47.510;19.122;2024-02-04T10:09:35;1.33;;;0.82;;
39308;SDS011;26019;47.510;19.122;2024-02-04T10:19:37;1.05;;;0.95;;
39308;SDS011;26019;47.510;19.122;2024-02-04T10:29:42;0.63;;;0.63;;
39308;SDS011;26019;47.510;19.122;2024-02-04T10:39:46;1.10;;;0.90;;
39308;SDS011;26019;47.510;19.122;2024-02-04T10:49:50;1.38;;;0.70;;
39308;SDS011;26019;47.510;19.122;2024-02-04T10:59:54;0.95;;;0.75;;
39308;SDS011;26019;47.510;19.122;2024-02-04T11:30:38;1.25;;;0.60;;
39308;SDS011;26019;47.510;19.122;2024-02-04T11:40:42;1.02;;;0.70;;
39308;SDS011;26019;47.510;19.122;2024-02-04T11:50:52;2.10;;;0.97;;
39308;SDS011;26019;47.510;19.122;2024-02-04T12:01:00;0.50;;;0.50;;
39308;SDS011;26019;47.510;19.122;2024-02-04T12:11:03;0.50;;;0.50;;
39308;SDS011;26019;47.510;19.122;2024-02-04T12:21:05;0.65;;;0.63;;
39308;SDS011;26019;47.510;19.122;2024-02-04T12:31:30;2.40;;;0.70;;
39308;SDS011;26019;47.510;19.122;2024-02-04T12:41:34;1.92;;;0.60;;
39308;SDS011;26019;47.510;19.122;2024-02-04T12:51:36;1.35;;;0.60;;
39308;SDS011;26019;47.510;19.122;2024-02-04T13:01:42;0.60;;;0.60;;
39308;SDS011;26019;47.510;19.122;2024-02-04T13:11:44;0.40;;;0.40;;
39308;SDS011;26019;47.510;19.122;2024-02-04T13:21:46;0.80;;;0.40;;
39308;SDS011;26019;47.510;19.122;2024-02-04T13:31:48;4.73;;;0.90;;
39308;SDS011;26019;47.510;19.122;2024-02-04T13:41:51;0.40;;;0.40;;
39308;SDS011;26019;47.510;19.122;2024-02-04T13:51:53;0.85;;;0.50;;
39308;SDS011;26019;47.510;19.122;2024-02-04T14:01:57;1.70;;;0.40;;
39308;SDS011;26019;47.510;19.122;2024-02-04T14:12:02;0.98;;;0.50;;
39308;SDS011;26019;47.510;19.122;2024-02-04T14:22:07;0.73;;;0.50;;
39308;SDS011;26019;47.510;19.122;2024-02-04T14:32:10;1.90;;;1.07;;
39308;SDS011;26019;47.510;19.122;2024-02-04T14:42:13;1.05;;;0.73;;
39308;SDS011;26019;47.510;19.122;2024-02-04T14:52:15;0.43;;;0.40;;
39308;SDS011;26019;47.510;19.122;2024-02-04T15:02:33;0.47;;;0.40;;
39308;SDS011;26019;47.510;19.122;2024-02-04T15:12:46;2.63;;;0.50;;
39308;SDS011;26019;47.510;19.122;2024-02-04T15:22:48;1.83;;;0.27;;
39308;SDS011;26019;47.510;19.122;2024-02-04T15:32:50;0.87;;;0.30;;
39308;SDS011;26019;47.510;19.122;2024-02-04T15:42:54;0.60;;;0.52;;
39308;SDS011;26019;47.510;19.122;2024-02-04T15:52:57;0.53;;;0.50;;
39308;SDS011;26019;47.510;19.122;2024-02-04T16:03:03;0.43;;;0.43;;
39308;SDS011;26019;47.510;19.122;2024-02-04T16:13:07;0.60;;;0.55;;
39308;SDS011;26019;47.510;19.122;2024-02-04T16:23:14;1.58;;;0.47;;
39308;SDS011;26019;47.510;19.122;2024-02-04T16:33:18;1.95;;;0.40;;
39308;SDS011;26019;47.510;19.122;2024-02-04T16:43:20;0.80;;;0.70;;
39308;SDS011;26019;47.510;19.122;2024-02-04T16:53:24;0.70;;;0.52;;
39308;SDS011;26019;47.510;19.122;2024-02-04T17:03:27;0.63;;;0.63;;
39308;SDS011;26019;47.510;19.122;2024-02-04T17:13:31;0.43;;;0.30;;
39308;SDS011;26019;47.510;19.122;2024-02-04T17:23:33;0.70;;;0.40;;
39308;SDS011;26019;47.510;19.122;2024-02-04T17:33:39;0.43;;;0.40;;
39308;SDS011;26019;47.510;19.122;2024-02-04T17:43:44;0.63;;;0.40;;
39308;SDS011;26019;47.510;19.122;2024-02-04T17:53:47;1.33;;;0.40;;
39308;SDS011;26019;47.510;19.122;2024-02-04T18:13:53;0.57;;;0.45;;
39308;SDS011;26019;47.510;19.122;2024-02-04T18:23:57;0.30;;;0.30;;
39308;SDS011;26019;47.510;19.122;2024-02-04T18:34:02;0.85;;;0.70;;
39308;SDS011;26019;47.510;19.122;2024-02-04T18:44:07;2.17;;;0.57;;
39308;SDS011;26019;47.510;19.122;2024-02-04T18:54:12;1.02;;;0.70;;
39308;SDS011;26019;47.510;19.122;2024-02-04T19:04:19;1.07;;;0.70;;
39308;SDS011;26019;47.510;19.122;2024-02-04T19:14:28;0.43;;;0.40;;
39308;SDS011;26019;47.510;19.122;2024-02-04T19:24:30;0.93;;;0.70;;
39308;SDS011;26019;47.510;19.122;2024-02-04T19:34:33;0.90;;;0.57;;
39308;SDS011;26019;47.510;19.122;2024-02-04T19:44:38;2.17;;;1.00;;
39308;SDS011;26019;47.510;19.122;2024-02-04T19:54:42;0.55;;;0.50;;
39308;SDS011;26019;47.510;19.122;2024-02-04T20:04:46;0.95;;;0.55;;
39308;SDS011;26019;47.510;19.122;2024-02-04T20:14:50;0.50;;;0.50;;
39308;SDS011;26019;47.510;19.122;2024-02-04T20:24:52;0.35;;;0.35;;
39308;SDS011;26019;47.510;19.122;2024-02-04T20:34:54;0.63;;;0.30;;
39308;SDS011;26019;47.510;19.122;2024-02-04T20:44:56;0.40;;;0.40;;
39308;SDS011;26019;47.510;19.122;2024-02-04T20:55:02;0.40;;;0.30;;
39308;SDS011;26019;47.510;19.122;2024-02-04T21:05:05;0.30;;;0.30;;
39308;SDS011;26019;47.510;19.122;2024-02-04T21:15:13;1.03;;;0.93;;
39308;SDS011;26019;47.510;19.122;2024-02-04T21:25:26;1.70;;;0.43;;
39308;SDS011;26019;47.510;19.122;2024-02-04T21:35:28;1.75;;;0.52;;
39308;SDS011;26019;47.510;19.122;2024-02-04T21:45:30;0.60;;;0.32;;
39308;SDS011;26019;47.510;19.122;2024-02-04T21:55:42;0.40;;;0.33;;
39308;SDS011;26019;47.510;19.122;2024-02-04T22:05:52;1.60;;;0.30;;
39308;SDS011;26019;47.510;19.122;2024-02-04T22:15:55;0.40;;;0.40;;
39308;SDS011;26019;47.510;19.122;2024-02-04T22:25:56;0.30;;;0.30;;
39308;SDS011;26019;47.510;19.122;2024-02-04T22:46:02;0.30;;;0.30;;
39308;SDS011;26019;47.510;19.122;2024-02-04T22:56:11;0.52;;;0.30;;
39308;SDS011;26019;47.510;19.122;2024-02-04T23:06:13;0.30;;;0.25;;
39308;SDS011;26019;47.510;19.122;2024-02-04T23:16:15;2.15;;;0.65;;
39308;SDS011;26019;47.510;19.122;2024-02-04T23:26:17;0.43;;;0.37;;
39308;SDS011;26019;47.510;19.122;2024-02-04T23:36:19;1.02;;;0.45;;
39308;SDS011;26019;47.510;19.122;2024-02-04T23:46:22;1.45;;;0.52;;
39308;SDS011;26019;47.510;19.122;2024-02-04T23:56:24;2.78;;;0.55;;
